Time;durP1;ratioP1;P1;durP2;ratioP2;P2;SDS_P1;SDS_P2;PMS_P1;PMS_P2;Temp;Humidity;BMP_temperature;BMP_pressure;BME280_temperature;BME280_humidity;BME280_pressure;Samples;Min_cycle;Max_cycle;Signal;HPM_P1;HPM_P2
2021/04/25 00:01:55;;;;;;;16.27;11.07;;;;;;;7.38;63.37;94951.88;2992650;39;20352;-71
2021/04/25 00:03:56;;;;;;;18.45;10.98;;;;;;;7.59;63.00;94949.19;2980566;39;20425;-71
2021/04/25 00:05:58;;;;;;;18.20;11.43;;;;;;;7.68;62.65;94957.97;2986534;39;20079;-73
2021/04/25 00:07:59;;;;;;;21.00;11.70;;;;;;;7.72;62.25;94958.50;2981349;39;20408;-71
2021/04/25 00:10:00;;;;;;;22.55;12.10;;;;;;;7.74;62.63;94951.38;2991601;39;20050;-72
2021/04/25 00:12:02;;;;;;;21.38;11.20;;;;;;;7.67;62.25;94950.28;2983042;39;20136;-71
2021/04/25 00:14:03;;;;;;;18.35;11.20;;;;;;;7.79;62.21;94955.25;2983139;39;20147;-70
2021/04/25 00:16:05;;;;;;;20.70;11.55;;;;;;;7.96;61.56;94947.72;2988212;39;20079;-72
2021/04/25 00:18:07;;;;;;;19.10;10.98;;;;;;;8.09;60.80;94950.88;2990503;39;20044;-72
2021/04/25 00:20:09;;;;;;;17.80;11.05;;;;;;;8.12;60.64;94942.75;2991595;39;20482;-72
2021/04/25 00:22:11;;;;;;;18.25;10.75;;;;;;;7.96;60.35;94943.31;2986837;39;20055;-71
2021/04/25 00:24:12;;;;;;;17.70;10.13;;;;;;;7.94;60.52;94942.63;2986585;39;20224;-72
2021/04/25 00:26:13;;;;;;;16.88;10.43;;;;;;;8.02;60.32;94946.31;2989011;39;20055;-72
2021/04/25 00:28:14;;;;;;;21.45;10.73;;;;;;;8.11;60.31;94932.44;2990373;39;20136;-73
2021/04/25 00:30:19;;;;;;;19.02;10.00;;;;;;;8.23;59.37;94936.56;2987988;39;20058;-72
2021/04/25 00:32:20;;;;;;;22.52;11.02;;;;;;;8.34;59.01;94939.03;2979966;39;20091;-71
2021/04/25 00:34:22;;;;;;;15.63;9.50;;;;;;;8.37;58.94;94943.16;2992746;39;20057;-71
2021/04/25 00:36:23;;;;;;;15.88;9.82;;;;;;;8.39;58.62;94933.41;2992383;39;20055;-71
2021/04/25 00:38:24;;;;;;;15.60;9.75;;;;;;;8.41;59.21;94939.34;2992895;39;20083;-72
2021/04/25 00:40:25;;;;;;;17.80;10.98;;;;;;;8.40;58.64;94942.88;2990354;39;20489;-71
2021/04/25 00:42:28;;;;;;;21.98;11.05;;;;;;;8.39;58.78;94941.25;2989951;39;20058;-71
2021/04/25 00:44:29;;;;;;;17.25;10.70;;;;;;;8.38;58.85;94943.00;2984329;39;20107;-71
2021/04/25 00:46:31;;;;;;;16.25;10.13;;;;;;;8.34;59.19;94944.25;2989831;39;20107;-71
2021/04/25 00:48:32;;;;;;;19.73;10.85;;;;;;;8.12;59.80;94950.59;2992463;39;20077;-71
2021/04/25 00:50:33;;;;;;;21.05;11.20;;;;;;;7.84;60.67;94951.41;2990270;39;20101;-71
2021/04/25 00:52:41;;;;;;;17.98;11.45;;;;;;;7.82;60.84;94943.72;2984432;39;20055;-71
2021/04/25 00:54:42;;;;;;;18.60;10.40;;;;;;;7.94;60.88;94947.03;2991411;39;20055;-71
2021/04/25 00:56:44;;;;;;;18.75;10.60;;;;;;;8.02;60.03;94947.13;2982422;39;20080;-72
2021/04/25 00:58:45;;;;;;;18.90;10.98;;;;;;;8.10;60.21;94941.25;2978023;39;20103;-72
2021/04/25 01:00:46;;;;;;;15.20;10.52;;;;;;;8.21;59.91;94939.31;2987953;39;20055;-71
2021/04/25 01:02:47;;;;;;;18.33;10.63;;;;;;;8.30;59.69;94936.84;2987250;39;20404;-71
2021/04/25 01:04:49;;;;;;;16.50;10.02;;;;;;;8.37;59.17;94941.38;2996812;39;20114;-73
2021/04/25 01:06:50;;;;;;;17.15;10.70;;;;;;;8.44;58.90;94938.22;2992527;39;20051;-71
2021/04/25 01:08:51;;;;;;;17.50;10.57;;;;;;;8.49;59.08;94938.63;2994097;39;20055;-87
2021/04/25 01:10:52;;;;;;;17.10;10.63;;;;;;;8.51;58.62;94937.50;2977283;40;20089;-83
2021/04/25 01:12:54;;;;;;;19.13;11.68;;;;;;;8.51;58.91;94937.50;2995305;39;20084;-84
2021/04/25 01:14:55;;;;;;;15.80;10.35;;;;;;;8.46;59.27;94938.91;2995497;39;20080;-85
2021/04/25 01:16:56;;;;;;;17.05;10.63;;;;;;;8.43;59.47;94939.19;2999940;39;20066;-85
2021/04/25 01:18:58;;;;;;;17.95;11.02;;;;;;;8.44;59.25;94938.22;3003620;39;20111;-84
2021/04/25 01:21:04;;;;;;;17.08;11.70;;;;;;;8.43;59.32;94932.16;2989171;39;20103;-85
2021/04/25 01:23:05;;;;;;;21.50;10.82;;;;;;;8.44;59.08;94935.63;2991509;39;20251;-71
2021/04/25 01:25:09;;;;;;;17.25;10.35;;;;;;;8.45;59.65;94937.25;2992630;39;20039;-72
2021/04/25 01:27:10;;;;;;;18.90;11.45;;;;;;;8.47;59.28;94938.75;2986300;39;20088;-85
2021/04/25 01:29:12;;;;;;;17.30;10.10;;;;;;;8.48;59.33;94939.59;2986161;39;20392;-84
2021/04/25 01:31:47;;;;;;;18.55;10.63;;;;;;;8.46;59.02;94933.69;2999392;39;20029;-84
2021/04/25 01:33:48;;;;;;;15.27;10.13;;;;;;;8.48;58.62;94937.00;2985480;39;20089;-85
2021/04/25 01:35:51;;;;;;;15.25;9.80;;;;;;;8.49;58.71;94936.84;2986332;39;20108;-83
2021/04/25 01:37:54;;;;;;;17.73;10.68;;;;;;;8.46;59.32;94934.50;2995598;39;20435;-83
2021/04/25 01:39:56;;;;;;;15.55;10.68;;;;;;;8.49;59.26;94931.59;2999627;39;20035;-84
2021/04/25 01:41:57;;;;;;;23.10;10.98;;;;;;;8.46;59.49;94936.31;2995830;39;20051;-82
2021/04/25 01:44:00;;;;;;;19.55;10.68;;;;;;;8.33;59.81;94926.13;2996052;39;20106;-83
2021/04/25 01:46:01;;;;;;;18.70;11.60;;;;;;;8.31;60.29;94938.50;2986504;39;20036;-82
2021/04/25 01:48:04;;;;;;;22.33;11.35;;;;;;;8.30;60.00;94932.47;2987527;39;20031;-85
2021/04/25 01:50:06;;;;;;;18.77;11.23;;;;;;;8.32;60.45;94934.91;2991366;39;20080;-84
2021/04/25 01:52:07;;;;;;;17.73;11.20;;;;;;;8.29;60.17;94936.00;2996655;39;20019;-85
2021/04/25 01:54:09;;;;;;;17.95;10.88;;;;;;;8.24;60.45;94932.16;2997259;39;20419;-85
2021/04/25 01:56:10;;;;;;;16.60;10.40;;;;;;;8.19;60.34;94933.44;2997715;39;20429;-83
2021/04/25 01:58:12;;;;;;;16.52;10.75;;;;;;;8.18;60.04;94928.34;2997394;39;20062;-84
2021/04/25 02:00:17;;;;;;;19.15;11.93;;;;;;;8.13;60.85;94926.16;2988708;39;20055;-84
2021/04/25 02:02:18;;;;;;;17.88;11.35;;;;;;;8.17;60.60;94931.91;2987367;39;20055;-85
2021/04/25 02:04:20;;;;;;;18.20;10.57;;;;;;;8.15;60.98;94924.22;2996617;39;20063;-84
2021/04/25 02:06:21;;;;;;;18.17;10.90;;;;;;;8.12;60.44;94927.09;2983584;39;20034;-84
2021/04/25 02:08:23;;;;;;;21.85;10.63;;;;;;;8.13;60.44;94923.53;2988404;39;20137;-83
2021/04/25 02:10:24;;;;;;;17.52;10.02;;;;;;;8.18;60.67;94923.94;3001563;39;20198;-85
2021/04/25 02:12:26;;;;;;;19.25;11.60;;;;;;;8.20;60.46;94915.97;3000107;39;20039;-85
2021/04/25 02:14:27;;;;;;;19.20;11.18;;;;;;;8.16;60.52;94915.41;2992344;39;20468;-84
2021/04/25 02:16:28;;;;;;;15.95;10.43;;;;;;;8.16;60.49;94918.03;2998203;39;20039;-85
2021/04/25 02:18:29;;;;;;;16.95;11.43;;;;;;;8.14;60.59;94919.13;2987854;39;20055;-83
2021/04/25 02:20:31;;;;;;;17.83;11.15;;;;;;;8.08;61.00;94917.06;2998586;39;20323;-84
2021/04/25 02:22:32;;;;;;;15.35;10.35;;;;;;;8.08;60.43;94917.06;2991595;39;20311;-85
2021/04/25 02:24:34;;;;;;;19.98;10.02;;;;;;;8.09;60.12;94914.34;3004809;39;20050;-85
2021/04/25 02:26:35;;;;;;;15.00;10.35;;;;;;;8.08;60.57;94914.47;3004738;39;20090;-84
2021/04/25 02:28:36;;;;;;;23.52;11.32;;;;;;;8.08;60.56;94912.69;2997108;39;20047;-84
2021/04/25 02:30:38;;;;;;;21.27;11.50;;;;;;;7.96;61.11;94911.19;3000051;39;20423;-83
2021/04/25 02:32:40;;;;;;;19.00;11.40;;;;;;;7.90;61.39;94914.34;3012204;39;20082;-82
2021/04/25 02:34:41;;;;;;;19.42;10.45;;;;;;;7.89;61.54;94912.69;2997859;39;20051;-82
2021/04/25 02:36:42;;;;;;;17.85;10.45;;;;;;;7.91;61.05;94906.38;3002992;39;20270;-71
2021/04/25 02:38:44;;;;;;;20.05;11.65;;;;;;;7.94;61.02;94900.88;2978334;39;20517;-73
2021/04/25 02:40:45;;;;;;;17.20;11.30;;;;;;;7.97;60.95;94899.78;2998547;39;20079;-84
2021/04/25 02:42:46;;;;;;;23.33;11.55;;;;;;;7.98;61.46;94901.44;2996209;39;20031;-83
2021/04/25 02:44:47;;;;;;;17.40;11.68;;;;;;;7.94;61.47;94900.06;2990740;39;20048;-83
2021/04/25 02:46:49;;;;;;;18.63;11.25;;;;;;;7.81;61.19;94895.13;2997051;39;20079;-86
2021/04/25 02:48:50;;;;;;;20.25;11.18;;;;;;;7.72;61.41;94899.38;2988323;39;20047;-83
2021/04/25 02:50:52;;;;;;;18.25;10.85;;;;;;;7.74;61.35;94902.69;2995402;39;20051;-84
2021/04/25 02:52:53;;;;;;;16.95;10.63;;;;;;;7.77;61.70;94899.78;2987114;39;20051;-84
2021/04/25 02:54:55;;;;;;;20.83;11.30;;;;;;;7.77;61.63;94896.38;2993870;39;20087;-84
2021/04/25 02:56:56;;;;;;;16.92;10.88;;;;;;;7.76;61.95;94895.50;2999729;39;20050;-85
2021/04/25 02:58:57;;;;;;;19.95;11.15;;;;;;;7.74;61.68;94892.25;3000570;39;20293;-86
2021/04/25 03:00:58;;;;;;;16.83;11.27;;;;;;;7.76;61.97;94892.91;2995983;39;20131;-86
2021/04/25 03:03:00;;;;;;;22.75;12.75;;;;;;;7.69;62.32;94889.22;2997415;39;20055;-84
2021/04/25 03:05:02;;;;;;;17.25;10.55;;;;;;;7.67;62.10;94888.53;2989245;39;20058;-84
2021/04/25 03:07:03;;;;;;;20.98;10.63;;;;;;;7.68;62.36;94889.34;2986782;39;20047;-84
2021/04/25 03:09:04;;;;;;;17.90;10.93;;;;;;;7.63;62.69;94889.75;2986844;39;20079;-85
2021/04/25 03:11:05;;;;;;;23.15;11.20;;;;;;;7.61;62.63;94891.66;2982969;39;20065;-84
2021/04/25 03:13:07;;;;;;;15.27;11.05;;;;;;;7.56;63.00;94896.47;2987526;39;20044;-84
2021/04/25 03:15:09;;;;;;;20.38;10.85;;;;;;;7.12;63.98;94898.56;2995569;39;20361;-86
2021/04/25 03:17:11;;;;;;;20.60;11.45;;;;;;;6.92;64.42;94901.13;3002201;39;20331;-86
2021/04/25 03:19:12;;;;;;;21.85;11.98;;;;;;;6.78;65.14;94906.69;2995915;39;20058;-85
2021/04/25 03:21:13;;;;;;;20.33;12.00;;;;;;;6.36;66.03;94906.75;3000984;39;20039;-85
2021/04/25 03:23:15;;;;;;;19.63;11.88;;;;;;;5.96;67.50;94904.88;2999115;39;20265;-84
2021/04/25 03:25:16;;;;;;;18.17;11.77;;;;;;;5.75;68.93;94915.19;2979379;40;20120;-84
2021/04/25 03:27:18;;;;;;;19.70;11.57;;;;;;;5.67;68.74;94915.81;2987508;39;20365;-82
2021/04/25 03:29:19;;;;;;;18.45;10.25;;;;;;;5.69;68.81;94907.91;2996227;39;20453;-86
2021/04/25 03:31:20;;;;;;;18.50;10.88;;;;;;;5.53;68.14;94916.13;2999974;39;20078;-70
2021/04/25 03:33:22;;;;;;;19.95;11.15;;;;;;;5.68;68.71;94914.88;2980799;39;20431;-72
2021/04/25 03:35:23;;;;;;;17.50;10.68;;;;;;;5.91;67.16;94906.97;2981652;39;20047;-70
2021/04/25 03:37:24;;;;;;;25.88;11.15;;;;;;;6.17;66.82;94904.84;2983220;39;20063;-71
2021/04/25 03:39:26;;;;;;;18.10;10.40;;;;;;;6.40;65.60;94908.16;2983243;39;20087;-71
2021/04/25 03:41:27;;;;;;;19.35;9.82;;;;;;;6.59;64.45;94904.00;2978859;39;20140;-73
2021/04/25 03:43:28;;;;;;;16.70;10.02;;;;;;;6.71;64.39;94902.94;2988876;39;20545;-72
2021/04/25 03:45:30;;;;;;;16.70;9.52;;;;;;;6.84;63.97;94903.56;2983894;39;20051;-73
2021/04/25 03:47:31;;;;;;;17.85;10.35;;;;;;;6.93;63.56;94908.00;2994219;39;20051;-71
2021/04/25 03:49:32;;;;;;;20.75;11.00;;;;;;;7.02;63.01;94903.78;2980490;39;20055;-71
2021/04/25 03:51:34;;;;;;;18.20;10.57;;;;;;;7.07;63.00;94905.97;2983480;39;20426;-72
2021/04/25 03:53:36;;;;;;;17.67;10.18;;;;;;;7.09;63.00;94904.06;2989440;39;20422;-72
2021/04/25 03:55:37;;;;;;;16.20;10.95;;;;;;;7.10;62.72;94900.50;2978726;39;20044;-70
2021/04/25 03:57:39;;;;;;;16.70;10.25;;;;;;;7.05;62.82;94908.69;2988620;39;20040;-71
2021/04/25 03:59:40;;;;;;;18.20;10.25;;;;;;;7.06;62.31;94909.56;2979766;39;20454;-70
2021/04/25 04:01:41;;;;;;;25.50;10.25;;;;;;;7.16;62.51;94912.97;2988928;39;20059;-73
2021/04/25 04:03:42;;;;;;;17.63;10.57;;;;;;;6.79;63.30;94916.16;2979321;39;20136;-71
2021/04/25 04:05:43;;;;;;;23.65;11.93;;;;;;;6.37;64.66;94918.81;2988351;39;20507;-72
2021/04/25 04:07:45;;;;;;;21.98;11.52;;;;;;;6.43;65.05;94915.72;2981048;39;20092;-70
2021/04/25 04:09:46;;;;;;;21.00;10.98;;;;;;;6.64;64.42;94914.84;2996210;39;20067;-72
2021/04/25 04:11:47;;;;;;;17.15;10.05;;;;;;;6.60;62.86;94913.47;2987959;39;20059;-72
2021/04/25 04:13:48;;;;;;;18.20;10.10;;;;;;;6.68;62.20;94921.44;2991907;39;20088;-72
2021/04/25 04:15:50;;;;;;;18.67;8.48;;;;;;;6.86;61.72;94921.66;2979920;39;20367;-75
2021/04/25 04:17:51;;;;;;;16.40;9.38;;;;;;;7.03;61.70;94922.81;2989458;39;20135;-71
2021/04/25 04:19:52;;;;;;;17.48;9.60;;;;;;;7.23;61.50;94918.47;2986697;39;20056;-71
2021/04/25 04:21:54;;;;;;;18.40;10.18;;;;;;;7.38;60.91;94928.41;2988698;39;20051;-72
2021/04/25 04:23:55;;;;;;;19.90;10.13;;;;;;;7.47;60.30;94925.97;2993658;39;20074;-72
2021/04/25 04:25:56;;;;;;;15.57;10.68;;;;;;;7.52;60.22;94929.81;3000867;39;20417;-71
2021/04/25 04:27:58;;;;;;;17.30;10.32;;;;;;;7.57;59.78;94932.00;2982534;39;20040;-70
2021/04/25 04:29:59;;;;;;;16.75;9.48;;;;;;;7.66;59.27;94928.59;2975305;39;20042;-73
2021/04/25 04:32:00;;;;;;;17.85;9.68;;;;;;;7.64;59.11;94933.13;2982070;39;20039;-73
2021/04/25 04:34:02;;;;;;;15.60;9.93;;;;;;;7.52;59.38;94927.19;2983086;39;20095;-71
2021/04/25 04:36:05;;;;;;;18.40;9.48;;;;;;;7.53;59.88;94935.88;2993034;39;20051;-72
2021/04/25 04:38:06;;;;;;;17.27;10.32;;;;;;;7.49;59.24;94934.47;2992964;39;20050;-72
2021/04/25 04:40:08;;;;;;;21.33;10.95;;;;;;;7.51;59.68;94935.19;2982930;39;20384;-83
2021/04/25 04:42:09;;;;;;;22.73;11.20;;;;;;;7.50;59.60;94933.50;2988652;39;20054;-86
2021/04/25 04:44:10;;;;;;;16.70;10.23;;;;;;;7.59;59.48;94938.75;2995360;39;20077;-86
2021/04/25 04:46:12;;;;;;;18.58;10.15;;;;;;;7.66;59.31;94939.03;2986004;39;20083;-85
2021/04/25 04:48:13;;;;;;;16.52;10.90;;;;;;;7.68;58.92;94938.88;2996302;39;20047;-85
2021/04/25 04:50:16;;;;;;;21.00;10.63;;;;;;;7.80;58.46;94936.00;2992956;39;20039;-86
2021/04/25 04:52:17;;;;;;;20.23;10.15;;;;;;;7.96;57.85;94945.09;2996333;39;20043;-86
2021/04/25 04:54:19;;;;;;;18.15;10.65;;;;;;;8.05;57.64;94941.66;2995775;39;20071;-83
2021/04/25 04:56:20;;;;;;;14.35;9.15;;;;;;;8.16;57.62;94940.69;2997759;39;20173;-86
2021/04/25 04:58:22;;;;;;;17.42;10.30;;;;;;;8.30;56.88;94945.50;3003531;39;20077;-87
2021/04/25 05:00:23;;;;;;;22.08;13.02;;;;;;;8.26;57.00;94951.97;2994460;39;20060;-84
2021/04/25 05:02:24;;;;;;;39.35;20.73;;;;;;;8.33;57.53;94947.81;2998763;39;20066;-85
2021/04/25 05:04:26;;;;;;;18.95;10.35;;;;;;;8.39;56.49;94949.06;2995966;39;20103;-86
2021/04/25 05:06:28;;;;;;;17.02;8.48;;;;;;;8.42;56.15;94945.38;2986431;39;20043;-84
2021/04/25 05:08:30;;;;;;;14.35;7.75;;;;;;;8.48;55.41;94956.09;2996671;39;20319;-87
2021/04/25 05:10:31;;;;;;;14.63;8.68;;;;;;;8.35;56.12;94952.91;2996584;39;20287;-85
2021/04/25 05:12:33;;;;;;;14.75;7.07;;;;;;;8.35;55.86;94950.31;2996069;39;20412;-85
2021/04/25 05:14:35;;;;;;;12.57;6.18;;;;;;;8.47;55.64;94946.59;2978004;40;20048;-87
2021/04/25 05:16:36;;;;;;;13.35;7.18;;;;;;;8.40;55.70;94953.31;2986630;39;20055;-89
2021/04/25 05:18:39;;;;;;;13.63;6.32;;;;;;;8.43;54.85;94955.66;2986988;39;20035;-88
2021/04/25 05:20:40;;;;;;;12.63;6.00;;;;;;;8.51;55.03;94953.19;2986815;39;20356;-86
2021/04/25 05:22:41;;;;;;;11.45;6.55;;;;;;;8.61;54.60;94955.78;2996038;39;20063;-89
2021/04/25 05:24:43;;;;;;;15.45;7.18;;;;;;;8.74;54.66;94955.50;2989765;39;20080;-73
2021/04/25 05:26:44;;;;;;;18.30;7.57;;;;;;;8.80;54.85;94957.53;2992286;39;20082;-72
2021/04/25 05:28:45;;;;;;;14.75;7.95;;;;;;;8.87;55.22;94950.78;2992848;39;20061;-72
2021/04/25 05:30:47;;;;;;;17.92;8.40;;;;;;;8.98;55.06;94957.59;2984547;39;20060;-71
2021/04/25 05:32:48;;;;;;;39.25;21.00;;;;;;;9.09;55.24;94952.19;2987546;39;20051;-72
2021/04/25 05:34:50;;;;;;;25.88;12.93;;;;;;;9.26;54.81;94950.63;2982741;39;20056;-74
2021/04/25 05:36:51;;;;;;;17.80;9.13;;;;;;;9.41;53.63;94951.78;2982854;39;20044;-72
2021/04/25 05:38:53;;;;;;;18.85;9.30;;;;;;;9.51;52.92;94940.47;2988837;39;20051;-71
2021/04/25 05:40:54;;;;;;;18.20;8.65;;;;;;;9.55;52.91;94942.63;2987378;39;20173;-71
2021/04/25 05:42:55;;;;;;;14.60;8.05;;;;;;;9.38;52.23;94954.69;2991696;39;20154;-73
2021/04/25 05:44:56;;;;;;;14.73;7.80;;;;;;;8.90;54.07;94945.25;2982175;39;20412;-71
2021/04/25 05:46:58;;;;;;;19.38;8.88;;;;;;;8.67;55.10;94959.59;2996407;39;20419;-72
2021/04/25 05:49:00;;;;;;;19.83;8.40;;;;;;;8.56;55.61;94955.38;2991003;39;20047;-73
2021/04/25 05:51:01;;;;;;;13.50;8.80;;;;;;;8.59;55.55;94953.31;2986817;39;20070;-71
2021/04/25 05:53:03;;;;;;;16.20;8.00;;;;;;;8.73;55.69;94956.44;2979734;39;20355;-73
2021/04/25 05:55:05;;;;;;;13.65;7.70;;;;;;;8.90;55.12;94953.09;2985763;39;20079;-73
2021/04/25 05:57:08;;;;;;;14.10;7.70;;;;;;;9.12;54.69;94953.69;2991057;39;20420;-73
2021/04/25 05:59:09;;;;;;;13.98;7.70;;;;;;;9.36;54.23;94951.41;2984201;39;20060;-72
2021/04/25 06:01:10;;;;;;;12.65;7.68;;;;;;;9.59;54.13;94949.22;2991868;39;20086;-71
2021/04/25 06:03:11;;;;;;;15.68;7.35;;;;;;;9.75;53.46;94955.59;2982582;39;20052;-74
2021/04/25 06:05:13;;;;;;;11.38;8.45;;;;;;;9.89;53.61;94956.88;2992013;39;20081;-72
2021/04/25 06:07:14;;;;;;;14.57;8.27;;;;;;;9.90;53.26;94948.06;2981311;39;20396;-73
2021/04/25 06:09:15;;;;;;;14.02;8.23;;;;;;;9.94;52.88;94950.22;2990963;39;20062;-74
2021/04/25 06:11:17;;;;;;;14.80;7.88;;;;;;;9.84;52.81;94952.09;2981554;39;20320;-73
2021/04/25 06:13:18;;;;;;;15.65;7.78;;;;;;;9.92;53.00;94946.13;2981487;39;20059;-71
2021/04/25 06:15:22;;;;;;;15.80;7.60;;;;;;;10.08;52.45;94946.25;2976600;39;20066;-72
2021/04/25 06:17:24;;;;;;;18.30;8.15;;;;;;;10.24;51.86;94935.13;2977483;39;20043;-73
2021/04/25 06:19:25;;;;;;;11.48;7.15;;;;;;;10.43;52.16;94945.44;2992711;39;20055;-72
2021/04/25 06:21:27;;;;;;;16.35;7.97;;;;;;;10.39;51.45;94938.03;2991358;39;20058;-72
2021/04/25 06:23:29;;;;;;;14.98;8.02;;;;;;;10.16;51.32;94932.44;2991823;39;20292;-72
2021/04/25 06:25:30;;;;;;;11.82;7.70;;;;;;;9.90;53.03;94940.22;2973662;39;20087;-72
2021/04/25 06:27:31;;;;;;;13.38;7.38;;;;;;;10.02;52.00;94934.59;2986507;39;20389;-73
2021/04/25 06:29:32;;;;;;;15.40;7.10;;;;;;;10.04;52.76;94939.66;2992264;39;20083;-71
2021/04/25 06:31:34;;;;;;;13.77;7.90;;;;;;;10.11;52.40;94939.88;2992626;39;20043;-72
2021/04/25 06:33:36;;;;;;;16.30;9.98;;;;;;;10.28;52.63;94933.81;2976400;39;20141;-72
2021/04/25 06:35:37;;;;;;;40.70;17.85;;;;;;;10.54;52.71;94928.66;2991542;39;20055;-73
2021/04/25 06:37:42;;;;;;;23.30;12.40;;;;;;;10.82;52.66;94933.78;2996080;39;20133;-72
2021/04/25 06:39:43;;;;;;;16.42;9.50;;;;;;;11.06;51.67;94926.03;2987895;39;20404;-73
2021/04/25 06:41:45;;;;;;;15.40;7.93;;;;;;;11.09;50.88;94927.50;2996763;39;20415;-71
2021/04/25 06:43:46;;;;;;;12.95;7.60;;;;;;;11.08;50.23;94923.25;2975588;39;20058;-72
2021/04/25 06:45:48;;;;;;;13.60;8.75;;;;;;;11.07;50.98;94922.41;2993242;39;20436;-73
2021/04/25 06:47:50;;;;;;;28.55;13.50;;;;;;;11.05;51.24;94921.75;2996119;39;20055;-89
2021/04/25 06:49:51;;;;;;;14.63;10.13;;;;;;;11.17;50.22;94922.31;2997929;39;20058;-85
2021/04/25 06:51:52;;;;;;;17.30;8.13;;;;;;;11.21;50.01;94915.78;2997044;39;20031;-86
2021/04/25 06:53:55;;;;;;;10.90;5.85;;;;;;;11.26;48.42;94916.09;2991683;39;20048;-86
2021/04/25 06:55:56;;;;;;;12.98;6.40;;;;;;;11.44;48.64;94907.31;2996177;39;20039;-84
2021/04/25 06:57:57;;;;;;;10.40;6.13;;;;;;;11.58;46.96;94908.53;3001071;39;20047;-86
2021/04/25 06:59:58;;;;;;;10.98;6.40;;;;;;;11.11;47.81;94903.75;2998626;39;20054;-87
2021/04/25 07:01:59;;;;;;;10.70;6.20;;;;;;;11.01;47.90;94901.25;2989028;39;20466;-86
2021/04/25 07:04:01;;;;;;;12.13;6.45;;;;;;;10.92;48.03;94900.38;2989851;39;20411;-85
2021/04/25 07:06:04;;;;;;;17.48;6.40;;;;;;;11.04;48.51;94895.69;2980663;39;20047;-86
2021/04/25 07:08:06;;;;;;;11.27;6.30;;;;;;;10.81;48.68;94895.41;2974336;39;20041;-86
2021/04/25 07:10:08;;;;;;;13.43;6.03;;;;;;;10.66;48.33;94898.59;2992854;39;20050;-72
2021/04/25 07:12:10;;;;;;;10.27;6.63;;;;;;;10.54;48.90;94905.09;2985292;39;20119;-74
2021/04/25 07:14:11;;;;;;;10.52;6.15;;;;;;;10.91;48.37;94900.56;2994455;39;20456;-74
2021/04/25 07:16:13;;;;;;;12.93;6.20;;;;;;;11.26;47.86;94892.50;2990490;39;20343;-71
2021/04/25 07:18:14;;;;;;;11.75;5.85;;;;;;;10.99;46.72;94888.31;2987898;39;20047;-74
2021/04/25 07:20:16;;;;;;;11.90;5.72;;;;;;;11.05;45.76;94892.09;2992958;39;20087;-74
2021/04/25 07:22:18;;;;;;;8.38;6.07;;;;;;;11.23;46.29;94890.22;2993474;39;20355;-71
2021/04/25 07:24:19;;;;;;;9.55;5.40;;;;;;;11.36;44.53;94888.94;2983139;39;20103;-73
2021/04/25 07:26:20;;;;;;;10.13;6.43;;;;;;;11.42;44.63;94880.41;2986301;39;20439;-72
2021/04/25 07:28:25;;;;;;;9.77;6.45;;;;;;;11.59;44.09;94889.97;2988980;39;20087;-71
2021/04/25 07:30:27;;;;;;;11.52;5.82;;;;;;;11.23;45.00;94886.78;2987666;39;20055;-72
2021/04/25 07:32:28;;;;;;;10.00;5.82;;;;;;;11.11;45.11;94880.97;2979461;39;20452;-75
2021/04/25 07:34:29;;;;;;;11.18;6.40;;;;;;;10.99;46.15;94882.22;2988350;39;20268;-74
2021/04/25 07:36:30;;;;;;;11.30;6.60;;;;;;;11.39;45.92;94876.31;2981847;39;20063;-73
2021/04/25 07:38:31;;;;;;;9.25;5.43;;;;;;;11.53;44.51;94881.94;2976864;39;20400;-74
2021/04/25 07:40:33;;;;;;;11.95;6.22;;;;;;;11.54;44.25;94873.91;2992401;39;20047;-72
2021/04/25 07:42:35;;;;;;;11.35;5.10;;;;;;;11.37;43.94;94875.66;2993273;39;20320;-74
2021/04/25 07:44:40;;;;;;;8.32;5.10;;;;;;;11.56;43.65;94879.81;2993421;39;20053;-74
2021/04/25 07:46:41;;;;;;;10.90;5.65;;;;;;;11.78;43.28;94875.75;2984238;39;20084;-74
2021/04/25 07:48:45;;;;;;;16.20;5.65;;;;;;;12.06;43.33;94867.59;2986246;39;20047;-75
2021/04/25 07:50:47;;;;;;;11.13;5.25;;;;;;;12.36;42.40;94875.81;2990175;39;20047;-74
2021/04/25 07:52:48;;;;;;;9.23;5.57;;;;;;;12.44;41.63;94865.28;2978479;39;20077;-75
2021/04/25 07:54:49;;;;;;;8.32;4.65;;;;;;;12.28;40.91;94864.31;2977362;39;20055;-73
2021/04/25 07:56:50;;;;;;;10.13;5.13;;;;;;;12.55;40.81;94862.31;2991351;39;20432;-73
2021/04/25 07:58:51;;;;;;;7.30;4.97;;;;;;;12.72;39.87;94855.22;2979816;39;20659;-72
2021/04/25 08:00:53;;;;;;;6.60;4.05;;;;;;;12.09;38.49;94864.66;2986402;39;20405;-74
2021/04/25 08:02:54;;;;;;;6.05;3.83;;;;;;;11.70;39.00;94870.47;2995671;39;20083;-86
2021/04/25 08:04:56;;;;;;;7.07;3.72;;;;;;;11.84;38.74;94866.41;2987041;39;20447;-87
2021/04/25 08:06:57;;;;;;;7.20;3.90;;;;;;;11.72;39.20;94868.50;2996785;39;20071;-88
2021/04/25 08:08:58;;;;;;;7.30;3.85;;;;;;;11.61;39.56;94868.81;2987983;39;20063;-73
2021/04/25 08:10:59;;;;;;;7.65;4.60;;;;;;;11.85;39.94;94863.63;2979021;39;20065;-72
2021/04/25 08:13:01;;;;;;;6.72;4.45;;;;;;;12.24;39.87;94863.00;2992114;39;20058;-72
2021/04/25 08:15:04;;;;;;;12.63;4.60;;;;;;;12.40;39.04;94862.16;2976440;39;20052;-73
2021/04/25 08:17:06;;;;;;;10.95;4.55;;;;;;;12.47;40.11;94860.50;2988612;39;20044;-73
2021/04/25 08:19:08;;;;;;;11.27;4.57;;;;;;;12.63;40.49;94851.78;2988051;39;20051;-72
2021/04/25 08:21:09;;;;;;;8.43;4.75;;;;;;;12.91;39.92;94848.75;2992719;39;20510;-71
2021/04/25 08:23:10;;;;;;;8.45;4.53;;;;;;;12.96;39.27;94846.44;2985165;39;20066;-71
2021/04/25 08:25:12;;;;;;;8.27;4.45;;;;;;;12.32;39.82;94842.97;2991024;39;20076;-73
2021/04/25 08:27:13;;;;;;;10.70;5.20;;;;;;;12.40;40.24;94840.34;2974798;39;20079;-75
2021/04/25 08:29:15;;;;;;;9.40;5.05;;;;;;;12.77;39.88;94833.69;2987115;39;20050;-73
2021/04/25 08:31:16;;;;;;;11.95;5.28;;;;;;;12.87;39.52;94836.94;2997617;39;20065;-73
2021/04/25 08:33:18;;;;;;;8.43;4.70;;;;;;;13.07;39.17;94838.16;2996041;39;20047;-73
2021/04/25 08:35:19;;;;;;;8.43;4.55;;;;;;;12.66;39.36;94833.03;2993254;39;20065;-73
2021/04/25 08:37:20;;;;;;;6.70;3.80;;;;;;;12.53;39.79;94826.69;2974691;39;20500;-76
2021/04/25 08:39:22;;;;;;;6.43;4.10;;;;;;;12.78;39.96;94830.06;2986788;39;20047;-72
2021/04/25 08:41:25;;;;;;;6.13;3.95;;;;;;;13.09;39.89;94828.28;2988135;39;20080;-72
2021/04/25 08:43:26;;;;;;;7.65;4.30;;;;;;;13.44;40.06;94823.56;2984441;39;20055;-76
2021/04/25 08:45:28;;;;;;;10.52;4.82;;;;;;;13.36;38.83;94826.22;2979415;39;20050;-72
2021/04/25 08:47:30;;;;;;;10.60;4.53;;;;;;;13.47;38.54;94828.47;2992200;39;20503;-74
2021/04/25 08:49:31;;;;;;;6.38;3.80;;;;;;;13.68;38.35;94819.09;2979808;39;20054;-72
2021/04/25 08:51:34;;;;;;;7.85;3.45;;;;;;;13.86;38.07;94819.66;2983659;39;20088;-76
2021/04/25 08:53:35;;;;;;;5.70;3.40;;;;;;;14.14;37.11;94827.00;2980568;39;20058;-75
2021/04/25 08:55:37;;;;;;;9.88;3.88;;;;;;;14.04;35.94;94823.78;2982447;39;20059;-74
2021/04/25 08:57:42;;;;;;;5.93;3.88;;;;;;;13.90;36.26;94823.56;2984001;39;20055;-72
2021/04/25 08:59:43;;;;;;;6.63;3.90;;;;;;;13.85;36.77;94822.44;2988478;39;20135;-73
2021/04/25 09:01:44;;;;;;;5.65;3.45;;;;;;;13.97;36.46;94817.59;2981417;39;20538;-73
2021/04/25 09:03:46;;;;;;;5.70;3.70;;;;;;;14.22;36.24;94810.28;2988978;39;20056;-76
2021/04/25 09:05:48;;;;;;;5.78;4.05;;;;;;;14.48;35.55;94802.81;2979431;39;20055;-74
2021/04/25 09:07:53;;;;;;;7.32;3.53;;;;;;;14.57;34.56;94802.75;2987374;39;20059;-72
2021/04/25 09:09:56;;;;;;;7.25;3.13;;;;;;;14.61;33.46;94804.03;2996940;39;20054;-87
2021/04/25 09:11:58;;;;;;;4.38;3.25;;;;;;;14.76;33.42;94801.41;2987153;39;20067;-88
2021/04/25 09:14:20;;;;;;;5.75;2.80;;;;;;;14.70;31.63;94803.75;2978578;40;20053;-85
2021/04/25 09:16:26;;;;;;;5.43;3.05;;;;;;;14.15;30.92;94794.38;2995860;39;20126;-87
2021/04/25 09:18:34;;;;;;;5.72;2.92;;;;;;;13.99;30.60;94799.81;2986753;39;20121;-89
2021/04/25 09:20:47;;;;;;;4.25;2.80;;;;;;;13.21;31.82;94799.81;2995948;39;20050;-88
2021/04/25 09:22:51;;;;;;;4.03;2.77;;;;;;;13.51;31.98;94787.66;2978155;39;20113;-89
2021/04/25 09:25:06;;;;;;;5.60;2.65;;;;;;;14.01;32.11;94787.28;3002074;39;20280;-90
2021/04/25 09:27:08;;;;;;;5.57;2.85;;;;;;;14.40;32.22;94775.72;2996270;39;20043;-88
2021/04/25 09:29:09;;;;;;;6.18;2.60;;;;;;;14.19;31.89;94779.84;2995981;39;20043;-86